Time;durP1;ratioP1;P1;durP2;ratioP2;P2;SDS_P1;SDS_P2;PMS_P1;PMS_P2;Temp;Humidity;BMP_temperature;BMP_pressure;BME280_temperature;BME280_humidity;BME280_pressure;Samples;Min_cycle;Max_cycle;Signal;HPM_P1;HPM_P2
2022/08/08 00:02:39;;;;;;;7.72;3.90;;;;;;;;;;4968973;28;20058;-87
2022/08/08 00:05:13;;;;;;;8.80;4.25;;;;;;;;;;4970836;28;20043;-87
2022/08/08 00:07:56;;;;;;;8.15;4.43;;;;;;;;;;4961331;28;20072;-87
2022/08/08 00:10:48;;;;;;;6.00;3.88;;;;;;;;;;4971732;28;20093;-87
2022/08/08 00:14:05;;;;;;;8.35;4.38;;;;;;;;;;4959966;28;20500;-87
2022/08/08 00:16:57;;;;;;;10.80;4.50;;;;;;;;;;4921630;29;20056;-87
2022/08/08 00:19:33;;;;;;;8.00;4.55;;;;;;;;;;4916161;29;20058;-88
2022/08/08 00:22:35;;;;;;;9.38;4.68;;;;;;;;;;4908934;29;20052;-89
2022/08/08 00:25:36;;;;;;;7.45;4.10;;;;;;;;;;4897253;29;20048;-88
2022/08/08 00:28:25;;;;;;;9.40;4.43;;;;;;;;;;4912727;29;20074;-89
2022/08/08 00:31:13;;;;;;;7.38;4.07;;;;;;;;;;4899486;29;20056;-89
2022/08/08 00:37:53;;;;;;;7.22;4.40;;;;;;;;;;4915745;29;20642;-88
2022/08/08 00:40:34;;;;;;;7.78;4.10;;;;;;;;;;4923411;29;20087;-89
2022/08/08 00:43:51;;;;;;;6.93;4.03;;;;;;;;;;4903209;29;20056;-89
2022/08/08 00:50:25;;;;;;;7.60;4.18;;;;;;;;;;4897062;29;20063;-88
2022/08/08 00:53:20;;;;;;;7.63;4.40;;;;;;;;;;4900793;28;20061;-89
2022/08/08 00:56:55;;;;;;;9.02;4.47;;;;;;;;;;4978763;28;20054;-88
2022/08/08 01:00:06;;;;;;;7.97;4.13;;;;;;;;;;4868761;29;20097;-87
2022/08/08 01:03:17;;;;;;;7.60;4.68;;;;;;;;;;4882321;29;20072;-87
2022/08/08 01:06:45;;;;;;;7.63;4.55;;;;;;;;;;4890970;29;20044;-87
2022/08/08 01:10:11;;;;;;;7.78;4.43;;;;;;;;;;4883033;29;20081;-89
2022/08/08 01:12:55;;;;;;;9.95;4.28;;;;;;;;;;4831267;29;20053;-89
2022/08/08 01:15:51;;;;;;;6.35;4.20;;;;;;;;;;4851551;29;20057;-89
2022/08/08 01:18:50;;;;;;;7.97;4.28;;;;;;;;;;4845316;29;20054;-87
2022/08/08 01:21:39;;;;;;;8.40;4.35;;;;;;;;;;4859068;29;20123;-87
2022/08/08 01:25:36;;;;;;;6.90;4.45;;;;;;;;;;4855401;29;20045;-87
2022/08/08 01:28:19;;;;;;;7.60;4.30;;;;;;;;;;4842519;29;20110;-87
2022/08/08 01:31:46;;;;;;;6.80;4.35;;;;;;;;;;4859472;29;20102;-87
2022/08/08 01:34:39;;;;;;;7.40;4.10;;;;;;;;;;4871621;29;20057;-87
2022/08/08 01:37:20;;;;;;;7.05;4.18;;;;;;;;;;4881591;29;20128;-89
2022/08/08 01:40:26;;;;;;;6.47;4.25;;;;;;;;;;4866762;29;20060;-89
2022/08/08 01:43:22;;;;;;;7.75;3.92;;;;;;;;;;4886954;29;20056;-89
2022/08/08 01:46:14;;;;;;;5.88;3.78;;;;;;;;;;4902255;28;20053;-88
2022/08/08 01:49:07;;;;;;;7.78;3.72;;;;;;;;;;4960958;28;20081;-87
2022/08/08 01:52:36;;;;;;;6.18;4.07;;;;;;;;;;4971680;28;20047;-87
2022/08/08 01:55:43;;;;;;;7.95;4.03;;;;;;;;;;4943282;28;20043;-87
2022/08/08 01:58:51;;;;;;;7.32;3.83;;;;;;;;;;4975909;28;20133;-87
2022/08/08 02:01:48;;;;;;;7.72;4.07;;;;;;;;;;4944529;28;20055;-87
2022/08/08 02:04:41;;;;;;;6.70;4.07;;;;;;;;;;4955596;28;20058;-87
2022/08/08 02:07:27;;;;;;;6.90;4.45;;;;;;;;;;4960221;28;20515;-89
2022/08/08 02:10:38;;;;;;;6.30;4.07;;;;;;;;;;4941207;28;20051;-89
2022/08/08 02:13:56;;;;;;;6.45;4.07;;;;;;;;;;4946816;28;20053;-89
2022/08/08 02:16:33;;;;;;;8.27;4.22;;;;;;;;;;4947876;28;20050;-89
2022/08/08 02:19:16;;;;;;;6.03;4.00;;;;;;;;;;4963365;28;20429;-89
2022/08/08 02:22:46;;;;;;;6.43;3.88;;;;;;;;;;4964173;28;20117;-89
2022/08/08 02:25:29;;;;;;;8.45;4.32;;;;;;;;;;4956174;28;20501;-89
2022/08/08 02:28:20;;;;;;;6.03;3.88;;;;;;;;;;4951737;28;20058;-87
2022/08/08 02:31:01;;;;;;;6.07;4.00;;;;;;;;;;4954957;28;20061;-87
2022/08/08 02:33:55;;;;;;;7.00;4.35;;;;;;;;;;4972125;28;20043;-87
2022/08/08 02:36:50;;;;;;;8.75;4.22;;;;;;;;;;4970426;28;20421;-88
2022/08/08 02:39:38;;;;;;;8.07;4.38;;;;;;;;;;4961385;28;20065;-87
2022/08/08 02:42:45;;;;;;;6.78;4.05;;;;;;;;;;4964373;28;20043;-87
2022/08/08 02:45:37;;;;;;;8.63;4.90;;;;;;;;;;4959105;28;20047;-87
2022/08/08 02:48:52;;;;;;;8.15;4.20;;;;;;;;;;4967021;28;20057;-87
2022/08/08 02:51:39;;;;;;;7.47;4.05;;;;;;;;;;4956314;28;20055;-87
2022/08/08 02:54:55;;;;;;;6.53;4.18;;;;;;;;;;4940262;28;20051;-87
2022/08/08 02:57:26;;;;;;;7.18;4.18;;;;;;;;;;4969400;28;20056;-89
2022/08/08 03:00:52;;;;;;;6.72;4.13;;;;;;;;;;4971037;28;20070;-89
2022/08/08 03:03:40;;;;;;;9.50;4.30;;;;;;;;;;4938992;29;20063;-89
2022/08/08 03:07:08;;;;;;;9.35;4.70;;;;;;;;;;4964775;28;20506;-88
2022/08/08 03:10:07;;;;;;;6.95;4.22;;;;;;;;;;4955372;28;20054;-87
2022/08/08 03:13:28;;;;;;;8.15;4.25;;;;;;;;;;4967794;28;21334;-88
2022/08/08 03:16:37;;;;;;;8.27;4.30;;;;;;;;;;4935969;28;20051;-88
2022/08/08 03:19:18;;;;;;;6.57;3.97;;;;;;;;;;4961648;28;20129;-87
2022/08/08 03:22:11;;;;;;;6.65;3.90;;;;;;;;;;4944317;28;20045;-87
2022/08/08 03:25:05;;;;;;;7.57;4.10;;;;;;;;;;4957612;28;20050;-87
2022/08/08 03:28:19;;;;;;;7.57;4.13;;;;;;;;;;4973981;28;20047;-87
2022/08/08 03:30:50;;;;;;;6.22;4.20;;;;;;;;;;4955660;28;20133;-87
2022/08/08 03:33:43;;;;;;;7.55;4.22;;;;;;;;;;4978134;28;20050;-87
2022/08/08 03:36:36;;;;;;;7.28;4.40;;;;;;;;;;4959919;28;20102;-89
2022/08/08 03:39:03;;;;;;;7.35;4.15;;;;;;;;;;4968394;28;20595;-89
2022/08/08 03:41:45;;;;;;;6.38;4.00;;;;;;;;;;4944840;28;20054;-89
2022/08/08 03:44:37;;;;;;;8.73;4.10;;;;;;;;;;4954380;28;20074;-89
2022/08/08 03:47:10;;;;;;;7.22;4.20;;;;;;;;;;4963735;28;20067;-87
2022/08/08 03:49:49;;;;;;;7.30;4.50;;;;;;;;;;4945198;28;20069;-87
2022/08/08 03:52:35;;;;;;;7.72;4.38;;;;;;;;;;4957736;28;20078;-87
2022/08/08 03:55:17;;;;;;;7.35;4.10;;;;;;;;;;4958917;28;20046;-87
2022/08/08 03:58:09;;;;;;;8.07;5.00;;;;;;;;;;4964655;28;20101;-89
2022/08/08 04:01:19;;;;;;;8.18;4.32;;;;;;;;;;4934997;28;20078;-89
2022/08/08 04:03:58;;;;;;;6.22;3.90;;;;;;;;;;4961682;28;20472;-89
2022/08/08 04:06:38;;;;;;;7.82;4.65;;;;;;;;;;4971301;28;20046;-87
2022/08/08 04:09:15;;;;;;;7.38;4.43;;;;;;;;;;4970034;28;20054;-87
2022/08/08 04:12:09;;;;;;;7.32;4.00;;;;;;;;;;4965041;28;20150;-87
2022/08/08 04:14:43;;;;;;;5.85;3.72;;;;;;;;;;4955805;28;20125;-87
2022/08/08 04:17:42;;;;;;;7.20;4.10;;;;;;;;;;4958011;28;21020;-87
2022/08/08 04:20:29;;;;;;;6.18;3.28;;;;;;;;;;4946677;28;20082;-87
2022/08/08 04:22:57;;;;;;;7.72;4.03;;;;;;;;;;4958722;28;20965;-87
2022/08/08 04:25:35;;;;;;;6.82;4.22;;;;;;;;;;4962176;28;20945;-87
2022/08/08 04:28:07;;;;;;;7.45;4.13;;;;;;;;;;4960237;28;20066;-89
2022/08/08 04:30:57;;;;;;;6.45;4.03;;;;;;;;;;4960400;28;20046;-89
2022/08/08 04:33:34;;;;;;;6.82;3.58;;;;;;;;;;4967682;28;20065;-89
2022/08/08 04:36:09;;;;;;;8.27;3.65;;;;;;;;;;4968150;28;20137;-87
2022/08/08 04:38:37;;;;;;;10.23;4.38;;;;;;;;;;4939471;28;20497;-87
2022/08/08 04:41:10;;;;;;;7.70;4.22;;;;;;;;;;4962976;28;20141;-87
2022/08/08 04:43:49;;;;;;;9.40;4.10;;;;;;;;;;4977395;28;20074;-87
2022/08/08 04:46:29;;;;;;;7.03;4.40;;;;;;;;;;4927343;28;20055;-88
2022/08/08 04:49:05;;;;;;;6.45;4.18;;;;;;;;;;4945311;28;20055;-87
2022/08/08 04:51:57;;;;;;;8.15;4.03;;;;;;;;;;4955656;28;20051;-87
2022/08/08 04:54:30;;;;;;;7.45;4.40;;;;;;;;;;4960981;28;20055;-87
2022/08/08 04:57:10;;;;;;;5.60;3.50;;;;;;;;;;4961768;28;20055;-87
2022/08/08 04:59:39;;;;;;;6.60;4.40;;;;;;;;;;4945437;28;20134;-87
2022/08/08 05:02:14;;;;;;;6.63;4.18;;;;;;;;;;4942018;28;20513;-87
2022/08/08 05:04:49;;;;;;;7.07;3.88;;;;;;;;;;4958305;28;20054;-87
2022/08/08 05:07:17;;;;;;;6.75;4.20;;;;;;;;;;4961689;28;20094;-87
2022/08/08 05:09:51;;;;;;;8.07;3.88;;;;;;;;;;4965271;28;20133;-87
2022/08/08 05:12:21;;;;;;;7.57;4.20;;;;;;;;;;4970665;28;20424;-87
2022/08/08 05:15:04;;;;;;;8.48;4.40;;;;;;;;;;4962037;28;20055;-87
2022/08/08 05:17:42;;;;;;;7.22;4.00;;;;;;;;;;4944564;28;20061;-87
2022/08/08 05:20:45;;;;;;;5.70;3.50;;;;;;;;;;4961755;28;20054;-87
2022/08/08 05:23:19;;;;;;;8.48;4.15;;;;;;;;;;4964352;28;20054;-87
2022/08/08 05:25:53;;;;;;;6.22;4.00;;;;;;;;;;4961606;28;20408;-87
2022/08/08 05:28:31;;;;;;;6.25;4.10;;;;;;;;;;4931979;28;20054;-87
2022/08/08 05:31:43;;;;;;;6.00;4.03;;;;;;;;;;4964843;28;20180;-87
2022/08/08 05:34:59;;;;;;;6.13;3.50;;;;;;;;;;4970162;28;20156;-87
2022/08/08 05:37:36;;;;;;;6.18;3.67;;;;;;;;;;4960806;28;20050;-87
2022/08/08 05:40:21;;;;;;;7.45;3.60;;;;;;;;;;4956820;28;20059;-87
2022/08/08 05:43:09;;;;;;;6.22;3.55;;;;;;;;;;4975035;28;20082;-87
2022/08/08 05:46:08;;;;;;;7.47;3.30;;;;;;;;;;4957602;28;20047;-87
2022/08/08 05:48:40;;;;;;;6.03;3.55;;;;;;;;;;4943281;28;20077;-87
2022/08/08 05:51:14;;;;;;;5.90;3.60;;;;;;;;;;4946080;28;20050;-88
2022/08/08 05:53:47;;;;;;;9.55;3.67;;;;;;;;;;4960401;28;20054;-88
2022/08/08 05:56:43;;;;;;;6.47;3.33;;;;;;;;;;4952712;28;20539;-89
2022/08/08 05:59:41;;;;;;;6.03;3.30;;;;;;;;;;4955860;28;20599;-90
2022/08/08 06:05:53;;;;;;;6.25;3.38;;;;;;;;;;4964646;28;20055;-89
2022/08/08 06:08:35;;;;;;;5.25;3.17;;;;;;;;;;4963119;28;20104;-89
2022/08/08 06:11:09;;;;;;;6.55;3.50;;;;;;;;;;4940412;28;20058;-89
2022/08/08 06:13:39;;;;;;;7.80;3.88;;;;;;;;;;4953574;28;20055;-90
2022/08/08 06:16:41;;;;;;;5.32;3.42;;;;;;;;;;4961889;28;20070;-89
2022/08/08 06:19:23;;;;;;;7.15;3.50;;;;;;;;;;4956684;28;20090;-89
2022/08/08 06:25:26;;;;;;;7.68;3.80;;;;;;;;;;4960490;28;20061;-89
2022/08/08 06:29:01;;;;;;;6.13;3.28;;;;;;;;;;4960886;28;20424;-88
2022/08/08 06:31:57;;;;;;;5.05;2.75;;;;;;;;;;4938098;28;20453;-88
2022/08/08 06:34:48;;;;;;;4.75;3.15;;;;;;;;;;4958795;28;20061;-88
2022/08/08 06:37:29;;;;;;;5.53;2.72;;;;;;;;;;4955949;28;20416;-87
2022/08/08 06:40:07;;;;;;;5.00;2.78;;;;;;;;;;4949039;28;20054;-87
2022/08/08 06:42:54;;;;;;;4.28;2.30;;;;;;;;;;4964048;28;20424;-88
2022/08/08 06:45:29;;;;;;;8.65;2.95;;;;;;;;;;4957992;28;20190;-87
2022/08/08 06:48:02;;;;;;;4.57;2.60;;;;;;;;;;4973265;28;20078;-87
2022/08/08 06:50:35;;;;;;;5.95;2.22;;;;;;;;;;4959798;28;20046;-88
2022/08/08 06:53:07;;;;;;;4.47;2.60;;;;;;;;;;4957253;28;20114;-88
2022/08/08 06:55:46;;;;;;;4.00;2.45;;;;;;;;;;4959828;28;20046;-88
2022/08/08 06:58:32;;;;;;;6.80;2.33;;;;;;;;;;4961533;28;20047;-87
2022/08/08 07:01:05;;;;;;;4.35;2.63;;;;;;;;;;4938309;28;20063;-88
2022/08/08 07:04:23;;;;;;;7.15;3.10;;;;;;;;;;4954065;28;20058;-88
2022/08/08 07:07:21;;;;;;;4.00;2.22;;;;;;;;;;4938074;28;20055;-88
2022/08/08 07:10:06;;;;;;;9.02;2.47;;;;;;;;;;4940903;28;20156;-88
2022/08/08 07:13:18;;;;;;;7.65;2.60;;;;;;;;;;4936529;28;20123;-88
2022/08/08 07:16:12;;;;;;;4.40;2.58;;;;;;;;;;4946918;28;20067;-88
2022/08/08 07:19:01;;;;;;;7.03;2.40;;;;;;;;;;4940322;28;20545;-88
2022/08/08 07:21:49;;;;;;;6.50;2.30;;;;;;;;;;4955522;28;20147;-88
2022/08/08 07:24:23;;;;;;;5.70;2.42;;;;;;;;;;4952955;28;20051;-88
2022/08/08 07:27:05;;;;;;;7.50;2.15;;;;;;;;;;4955606;28;20043;-88
2022/08/08 07:29:38;;;;;;;5.65;2.15;;;;;;;;;;4972741;28;20166;-88
2022/08/08 07:32:26;;;;;;;5.13;2.28;;;;;;;;;;4952364;28;20126;-88
2022/08/08 07:34:58;;;;;;;4.82;2.10;;;;;;;;;;4957348;28;20047;-88
2022/08/08 07:37:38;;;;;;;4.85;2.10;;;;;;;;;;4972393;28;20527;-87
2022/08/08 07:40:38;;;;;;;4.90;2.10;;;;;;;;;;4957044;28;20134;-88
2022/08/08 07:43:20;;;;;;;6.35;1.90;;;;;;;;;;4949426;28;20050;-88
2022/08/08 07:46:27;;;;;;;5.70;2.35;;;;;;;;;;4961167;28;20400;-89
2022/08/08 07:49:12;;;;;;;5.00;2.25;;;;;;;;;;4975522;28;20055;-88
2022/08/08 07:51:42;;;;;;;4.45;2.17;;;;;;;;;;4941563;28;20110;-88
2022/08/08 07:54:33;;;;;;;3.63;2.05;;;;;;;;;;4954573;28;20154;-88
2022/08/08 07:57:24;;;;;;;4.22;2.40;;;;;;;;;;4957303;28;20401;-88
2022/08/08 08:00:09;;;;;;;4.88;2.15;;;;;;;;;;4954257;28;20052;-88
2022/08/08 08:03:10;;;;;;;5.53;2.15;;;;;;;;;;4963146;28;20050;-88
2022/08/08 08:05:53;;;;;;;5.70;2.50;;;;;;;;;;4965746;28;20110;-88
2022/08/08 08:08:46;;;;;;;6.15;2.20;;;;;;;;;;4942447;28;20059;-88
2022/08/08 08:11:20;;;;;;;7.05;2.55;;;;;;;;;;4955056;28;20102;-89
2022/08/08 08:14:28;;;;;;;5.93;2.40;;;;;;;;;;4931807;28;20469;-89
2022/08/08 08:17:01;;;;;;;6.30;2.30;;;;;;;;;;4942946;28;20059;-89
2022/08/08 08:32:19;;;;;;;3.85;1.80;;;;;;;;;;4972349;28;20125;-90
2022/08/08 08:35:04;;;;;;;3.08;1.58;;;;;;;;;;4959350;28;20054;-90
2022/08/08 08:37:57;;;;;;;4.18;1.10;;;;;;;;;;4977140;28;20049;-91
2022/08/08 08:40:53;;;;;;;3.60;1.40;;;;;;;;;;4940173;28;20054;-92
2022/08/08 08:43:23;;;;;;;3.40;1.88;;;;;;;;;;4978114;28;20059;-91
2022/08/08 08:45:57;;;;;;;5.13;1.45;;;;;;;;;;4962040;28;20117;-91
2022/08/08 08:48:59;;;;;;;5.43;1.67;;;;;;;;;;4979999;28;20093;-94
2022/08/08 08:51:29;;;;;;;3.55;1.60;;;;;;;;;;4972770;28;20058;-95
2022/08/08 08:54:24;;;;;;;2.75;1.35;;;;;;;;;;4937455;28;20047;-95
2022/08/08 08:56:58;;;;;;;4.13;1.40;;;;;;;;;;4952994;28;20098;-95
2022/08/08 08:59:31;;;;;;;4.22;1.30;;;;;;;;;;4946769;28;20051;-95
2022/08/08 09:02:25;;;;;;;4.57;1.90;;;;;;;;;;4972023;28;20073;-95
2022/08/08 09:05:01;;;;;;;6.38;1.50;;;;;;;;;;4974965;28;20057;-95
2022/08/08 09:07:33;;;;;;;3.80;1.63;;;;;;;;;;4965350;28;20113;-87
2022/08/08 09:10:22;;;;;;;2.83;1.15;;;;;;;;;;4962268;28;20046;-87
2022/08/08 09:12:57;;;;;;;3.88;1.30;;;;;;;;;;4975864;28;20047;-88
2022/08/08 09:15:26;;;;;;;6.32;1.55;;;;;;;;;;4943758;28;20410;-87
2022/08/08 09:18:10;;;;;;;4.38;1.60;;;;;;;;;;4961651;28;20054;-95
2022/08/08 09:20:44;;;;;;;4.95;2.10;;;;;;;;;;4971942;28;20500;-95
2022/08/08 09:23:32;;;;;;;5.45;1.58;;;;;;;;;;4978407;28;20050;-95
2022/08/08 09:26:25;;;;;;;6.60;2.00;;;;;;;;;;4963889;28;20051;-89
2022/08/08 09:29:05;;;;;;;4.55;1.90;;;;;;;;;;4930338;28;20054;-88
2022/08/08 09:31:52;;;;;;;7.18;1.65;;;;;;;;;;4970193;28;20119;-87
2022/08/08 09:34:30;;;;;;;4.97;1.70;;;;;;;;;;4971385;28;20085;-87
2022/08/08 09:37:09;;;;;;;6.30;2.08;;;;;;;;;;4954154;28;20083;-87
2022/08/08 09:40:02;;;;;;;6.03;2.00;;;;;;;;;;4954848;28;20878;-87
2022/08/08 09:42:41;;;;;;;6.63;1.70;;;;;;;;;;4969919;28;20065;-87
2022/08/08 09:45:18;;;;;;;4.43;1.60;;;;;;;;;;4959374;28;20063;-87
2022/08/08 09:48:08;;;;;;;6.05;1.75;;;;;;;;;;4956085;28;20505;-87
2022/08/08 09:50:50;;;;;;;4.22;1.77;;;;;;;;;;4958869;28;20102;-88
2022/08/08 09:53:40;;;;;;;5.97;1.60;;;;;;;;;;4958595;28;20050;-87
2022/08/08 09:56:34;;;;;;;6.05;1.70;;;;;;;;;;4941776;28;20845;-95
2022/08/08 09:59:23;;;;;;;4.30;1.70;;;;;;;;;;4942531;28;20191;-96
2022/08/08 10:02:18;;;;;;;4.97;1.70;;;;;;;;;;4939251;29;20067;-96
2022/08/08 10:04:50;;;;;;;3.03;1.63;;;;;;;;;;4954424;29;20054;-96
2022/08/08 10:07:19;;;;;;;5.85;1.83;;;;;;;;;;4930738;29;20043;-96
2022/08/08 10:09:53;;;;;;;4.70;1.40;;;;;;;;;;4954933;28;20092;-96
2022/08/08 10:12:32;;;;;;;7.30;1.83;;;;;;;;;;4978796;28;20058;-95
2022/08/08 10:15:34;;;;;;;2.88;1.40;;;;;;;;;;4978516;28;20070;-96
2022/08/08 10:18:30;;;;;;;4.57;1.38;;;;;;;;;;4970606;28;20068;-95
2022/08/08 10:21:06;;;;;;;5.38;1.42;;;;;;;;;;4942946;28;20429;-95
2022/08/08 10:23:52;;;;;;;3.20;1.50;;;;;;;;;;4940678;29;20051;-95
2022/08/08 10:26:52;;;;;;;4.97;1.65;;;;;;;;;;4924280;29;20059;-96
2022/08/08 10:29:37;;;;;;;5.15;1.60;;;;;;;;;;4948744;28;20077;-96
2022/08/08 10:32:36;;;;;;;5.22;1.58;;;;;;;;;;4977392;28;20046;-96
2022/08/08 10:35:20;;;;;;;3.72;1.40;;;;;;;;;;4963262;28;20050;-96
2022/08/08 10:38:36;;;;;;;3.33;1.20;;;;;;;;;;4958007;28;20405;-96
2022/08/08 10:41:16;;;;;;;4.20;1.50;;;;;;;;;;4953327;28;20058;-95
2022/08/08 10:43:52;;;;;;;3.92;1.45;;;;;;;;;;4993309;28;20050;-96
2022/08/08 10:46:30;;;;;;;3.35;1.40;;;;;;;;;;4991614;28;20105;-88
2022/08/08 10:48:57;;;;;;;4.05;1.40;;;;;;;;;;4967154;28;20051;-96
2022/08/08 10:51:37;;;;;;;4.28;1.60;;;;;;;;;;4954961;28;20381;-96
2022/08/08 10:54:21;;;;;;;5.20;1.70;;;;;;;;;;4959067;28;20053;-95
2022/08/08 10:56:56;;;;;;;3.20;1.38;;;;;;;;;;4960767;28;20074;-95
2022/08/08 10:59:54;;;;;;;4.90;1.70;;;;;;;;;;4960046;28;20047;-95
2022/08/08 11:02:35;;;;;;;2.70;1.55;;;;;;;;;;4964084;28;20398;-95
2022/08/08 11:05:07;;;;;;;3.50;1.50;;;;;;;;;;4965008;28;20421;-93
2022/08/08 11:07:47;;;;;;;3.85;1.27;;;;;;;;;;4942594;28;20048;-93
2022/08/08 11:10:35;;;;;;;5.38;1.50;;;;;;;;;;4941763;28;20043;-93
2022/08/08 11:13:03;;;;;;;3.13;1.42;;;;;;;;;;4936359;28;20145;-93
2022/08/08 11:15:54;;;;;;;4.70;1.25;;;;;;;;;;4956138;28;20083;-93
2022/08/08 11:18:29;;;;;;;3.35;1.42;;;;;;;;;;4955131;28;20130;-88
2022/08/08 11:21:01;;;;;;;4.15;1.33;;;;;;;;;;4945202;28;20051;-88
2022/08/08 11:23:41;;;;;;;3.28;1.35;;;;;;;;;;4975934;28;20440;-88
2022/08/08 11:26:37;;;;;;;3.13;1.08;;;;;;;;;;4975775;28;20133;-92
2022/08/08 11:29:26;;;;;;;2.63;1.45;;;;;;;;;;4969812;28;20104;-93
2022/08/08 11:32:26;;;;;;;4.22;1.30;;;;;;;;;;4958072;28;20106;-93
2022/08/08 11:35:09;;;;;;;5.10;1.48;;;;;;;;;;4944695;28;20105;-91
2022/08/08 11:37:58;;;;;;;2.60;1.38;;;;;;;;;;4948980;28;20085;-87
2022/08/08 11:40:48;;;;;;;2.10;1.30;;;;;;;;;;4946273;28;20061;-88
2022/08/08 11:43:27;;;;;;;4.68;1.40;;;;;;;;;;4940160;28;20055;-88
2022/08/08 11:46:07;;;;;;;3.42;1.20;;;;;;;;;;4938601;28;20058;-88
2022/08/08 11:49:07;;;;;;;2.75;1.30;;;;;;;;;;4968274;28;20045;-88
2022/08/08 11:51:37;;;;;;;4.70;1.35;;;;;;;;;;4953014;28;20043;-87
2022/08/08 11:54:44;;;;;;;4.13;1.40;;;;;;;;;;4972869;28;20138;-86
2022/08/08 11:57:35;;;;;;;4.90;2.00;;;;;;;;;;4961901;28;20105;-94
2022/08/08 12:00:28;;;;;;;2.85;1.10;;;;;;;;;;4948068;28;20050;-94
2022/08/08 12:03:30;;;;;;;3.38;1.30;;;;;;;;;;4958593;28;20046;-94
2022/08/08 12:05:57;;;;;;;4.75;1.30;;;;;;;;;;4960655;28;20062;-90
2022/08/08 12:11:55;;;;;;;3.58;1.20;;;;;;;;;;4944515;28;20047;-94
2022/08/08 12:14:24;;;;;;;2.42;1.17;;;;;;;;;;4944478;28;20047;-93
2022/08/08 12:17:01;;;;;;;2.78;1.10;;;;;;;;;;4946345;28;20078;-95
2022/08/08 12:19:29;;;;;;;5.50;1.30;;;;;;;;;;4947600;28;20476;-94
2022/08/08 12:22:17;;;;;;;4.07;1.92;;;;;;;;;;4966337;28;20050;-94
2022/08/08 12:25:27;;;;;;;3.20;1.25;;;;;;;;;;4980039;28;20046;-94
2022/08/08 12:28:19;;;;;;;2.35;1.10;;;;;;;;;;4956894;28;20030;-86
2022/08/08 12:30:51;;;;;;;2.88;1.00;;;;;;;;;;4960686;28;20386;-86
2022/08/08 12:33:24;;;;;;;4.47;1.15;;;;;;;;;;4974228;28;20102;-86
2022/08/08 12:36:16;;;;;;;3.40;1.23;;;;;;;;;;4976879;28;20181;-87
2022/08/08 12:38:50;;;;;;;3.58;1.10;;;;;;;;;;4945142;28;20046;-94
2022/08/08 12:41:23;;;;;;;2.70;1.03;;;;;;;;;;4961194;28;20046;-93
2022/08/08 12:44:08;;;;;;;5.50;1.20;;;;;;;;;;4957651;28;20054;-93
2022/08/08 12:46:53;;;;;;;3.50;1.30;;;;;;;;;;4958491;28;20145;-86
2022/08/08 12:49:30;;;;;;;4.35;1.30;;;;;;;;;;4959157;28;20047;-86
2022/08/08 12:52:20;;;;;;;5.88;1.17;;;;;;;;;;4955965;28;20105;-86
2022/08/08 12:55:21;;;;;;;4.45;1.17;;;;;;;;;;4962249;28;20042;-86
2022/08/08 12:58:10;;;;;;;2.25;0.95;;;;;;;;;;4943075;28;20059;-94
2022/08/08 13:00:52;;;;;;;3.08;1.00;;;;;;;;;;4942477;29;20054;-94
2022/08/08 13:03:32;;;;;;;4.80;1.10;;;;;;;;;;4956558;29;20066;-93
2022/08/08 13:06:23;;;;;;;3.47;1.00;;;;;;;;;;4957217;28;20046;-86
2022/08/08 13:09:30;;;;;;;4.47;1.35;;;;;;;;;;4958125;28;20053;-86
2022/08/08 13:11:59;;;;;;;4.93;1.00;;;;;;;;;;4967158;28;20065;-86
2022/08/08 13:14:56;;;;;;;3.70;1.10;;;;;;;;;;4953351;28;20035;-86
2022/08/08 13:17:27;;;;;;;2.55;1.00;;;;;;;;;;4934849;28;20051;-86
2022/08/08 13:20:18;;;;;;;3.53;1.00;;;;;;;;;;4965031;28;20047;-86
2022/08/08 13:22:46;;;;;;;3.50;1.20;;;;;;;;;;4940873;28;20462;-86
2022/08/08 13:25:16;;;;;;;4.40;1.10;;;;;;;;;;4960270;28;20051;-86
2022/08/08 13:27:54;;;;;;;3.42;0.90;;;;;;;;;;4954455;28;20085;-94
2022/08/08 13:30:25;;;;;;;3.40;1.00;;;;;;;;;;4975389;28;20074;-93
2022/08/08 13:32:57;;;;;;;4.22;1.02;;;;;;;;;;4959627;28;20054;-94
2022/08/08 13:35:26;;;;;;;2.05;0.82;;;;;;;;;;4959385;28;20051;-93
2022/08/08 13:38:05;;;;;;;4.05;0.88;;;;;;;;;;4953969;28;20109;-86
2022/08/08 13:40:41;;;;;;;2.77;1.00;;;;;;;;;;4957430;28;20047;-86
2022/08/08 13:43:13;;;;;;;1.65;1.00;;;;;;;;;;4976206;28;20054;-86
2022/08/08 13:45:43;;;;;;;3.88;1.00;;;;;;;;;;4971386;28;20085;-86
2022/08/08 13:48:45;;;;;;;2.00;0.88;;;;;;;;;;4936769;28;20049;-86
2022/08/08 13:51:33;;;;;;;3.92;1.20;;;;;;;;;;4954573;28;20914;-86
2022/08/08 13:54:07;;;;;;;3.13;1.53;;;;;;;;;;4959626;28;20629;-86
2022/08/08 13:56:43;;;;;;;3.10;1.27;;;;;;;;;;4969097;28;20106;-87
2022/08/08 13:59:40;;;;;;;4.38;1.40;;;;;;;;;;4937548;28;20046;-85
2022/08/08 14:02:23;;;;;;;4.22;1.13;;;;;;;;;;4958511;28;20063;-85
2022/08/08 14:05:02;;;;;;;2.42;1.00;;;;;;;;;;4955721;28;20089;-86
2022/08/08 14:07:52;;;;;;;3.97;1.20;;;;;;;;;;4962903;28;20047;-94
2022/08/08 14:10:34;;;;;;;3.20;1.23;;;;;;;;;;4958617;28;20051;-93
2022/08/08 14:13:15;;;;;;;3.80;1.17;;;;;;;;;;4958384;28;20113;-94
2022/08/08 14:16:06;;;;;;;3.58;1.40;;;;;;;;;;4960061;28;20046;-87
2022/08/08 14:18:55;;;;;;;2.30;1.10;;;;;;;;;;4959258;28;20055;-94
2022/08/08 14:21:43;;;;;;;8.07;1.40;;;;;;;;;;4958236;28;20106;-93
2022/08/08 14:24:36;;;;;;;4.28;1.00;;;;;;;;;;4945399;28;20134;-93
2022/08/08 14:27:14;;;;;;;5.45;1.67;;;;;;;;;;4957135;28;20054;-86
2022/08/08 14:30:10;;;;;;;4.55;1.20;;;;;;;;;;4965809;28;20137;-85
2022/08/08 14:32:50;;;;;;;5.53;1.77;;;;;;;;;;4971973;28;20081;-85
2022/08/08 14:35:23;;;;;;;3.25;1.63;;;;;;;;;;4966099;28;20145;-85
2022/08/08 14:38:08;;;;;;;5.95;1.30;;;;;;;;;;4954192;28;20043;-86
2022/08/08 14:41:08;;;;;;;5.53;1.60;;;;;;;;;;4943779;28;20053;-86
2022/08/08 14:44:27;;;;;;;2.17;1.27;;;;;;;;;;4973380;28;20119;-86
2022/08/08 14:47:10;;;;;;;8.00;1.50;;;;;;;;;;4974350;28;20046;-94
2022/08/08 14:50:05;;;;;;;4.05;1.13;;;;;;;;;;4943874;28;20102;-95
2022/08/08 14:52:52;;;;;;;4.82;1.35;;;;;;;;;;4959238;28;20074;-95
2022/08/08 14:55:45;;;;;;;2.47;1.25;;;;;;;;;;4961730;28;20055;-95
2022/08/08 14:58:53;;;;;;;4.72;1.40;;;;;;;;;;4966179;28;20058;-86
2022/08/08 15:02:14;;;;;;;3.45;1.38;;;;;;;;;;4937742;28;20058;-86
2022/08/08 15:05:14;;;;;;;6.90;1.52;;;;;;;;;;4800674;29;20145;-86
2022/08/08 15:07:41;;;;;;;3.75;1.40;;;;;;;;;;4790841;29;20065;-95
2022/08/08 15:10:21;;;;;;;3.92;1.30;;;;;;;;;;4814255;29;20141;-93
2022/08/08 15:12:55;;;;;;;4.32;1.48;;;;;;;;;;4808528;29;20463;-94
2022/08/08 15:15:26;;;;;;;4.03;1.33;;;;;;;;;;4823188;29;20130;-92
2022/08/08 15:18:19;;;;;;;4.00;1.10;;;;;;;;;;4808400;29;20138;-93
2022/08/08 15:20:53;;;;;;;5.88;1.30;;;;;;;;;;4807742;29;20161;-93
2022/08/08 15:23:31;;;;;;;6.72;1.30;;;;;;;;;;4807243;29;20200;-93
2022/08/08 15:26:25;;;;;;;3.60;1.20;;;;;;;;;;4822048;29;20107;-93
2022/08/08 15:29:00;;;;;;;3.55;1.20;;;;;;;;;;4822823;29;20050;-87
2022/08/08 15:31:29;;;;;;;3.10;1.15;;;;;;;;;;4809045;29;20056;-85
2022/08/08 15:34:22;;;;;;;4.43;1.50;;;;;;;;;;4837288;29;20500;-85
2022/08/08 15:36:59;;;;;;;3.72;1.30;;;;;;;;;;4904760;29;20475;-91
2022/08/08 15:39:34;;;;;;;3.72;1.20;;;;;;;;;;4888361;29;20057;-93
2022/08/08 15:47:59;;;;;;;4.78;1.30;;;;;;;;;;4964069;28;20504;-92
2022/08/08 15:51:01;;;;;;;3.63;1.20;;;;;;;;;;4983992;28;20045;-91
2022/08/08 15:53:34;;;;;;;4.35;1.40;;;;;;;;;;4981236;28;20149;-92
2022/08/08 15:56:25;;;;;;;2.75;1.15;;;;;;;;;;4964800;28;20492;-86
2022/08/08 15:58:59;;;;;;;4.43;1.33;;;;;;;;;;4975353;28;20059;-85
2022/08/08 16:01:29;;;;;;;3.38;1.38;;;;;;;;;;4958961;28;20061;-85
2022/08/08 16:04:17;;;;;;;4.07;1.30;;;;;;;;;;4960072;28;20054;-85
2022/08/08 16:06:48;;;;;;;4.35;1.20;;;;;;;;;;4972625;28;20051;-92
2022/08/08 16:09:17;;;;;;;3.90;1.20;;;;;;;;;;4961096;28;20441;-92
2022/08/08 16:12:10;;;;;;;6.63;1.67;;;;;;;;;;4960786;28;20133;-92
2022/08/08 16:15:08;;;;;;;4.85;1.35;;;;;;;;;;4960493;28;20050;-91
2022/08/08 16:17:39;;;;;;;5.13;1.20;;;;;;;;;;4962194;28;20094;-92
2022/08/08 16:20:27;;;;;;;5.50;1.42;;;;;;;;;;4960294;28;20584;-91
2022/08/08 16:22:55;;;;;;;4.90;1.30;;;;;;;;;;4960500;28;20133;-93
2022/08/08 16:25:47;;;;;;;6.88;1.30;;;;;;;;;;4963472;28;20498;-92
2022/08/08 16:28:24;;;;;;;4.57;1.30;;;;;;;;;;4962087;28;20448;-92
2022/08/08 16:31:04;;;;;;;3.00;1.25;;;;;;;;;;4990131;28;20054;-92
2022/08/08 16:33:55;;;;;;;2.92;1.30;;;;;;;;;;4940683;29;20035;-91
2022/08/08 16:36:51;;;;;;;2.70;1.05;;;;;;;;;;4949017;28;20193;-92
2022/08/08 16:39:43;;;;;;;6.10;1.30;;;;;;;;;;4947272;28;20047;-92
2022/08/08 16:42:29;;;;;;;3.55;1.08;;;;;;;;;;4977854;28;20074;-92
2022/08/08 16:45:03;;;;;;;3.00;1.20;;;;;;;;;;4995249;28;20412;-91
2022/08/08 16:48:15;;;;;;;4.18;1.80;;;;;;;;;;4979919;28;20093;-91
2022/08/08 16:50:45;;;;;;;5.65;1.30;;;;;;;;;;4959213;28;20055;-91
2022/08/08 16:53:13;;;;;;;3.17;1.17;;;;;;;;;;4978915;28;20050;-92
2022/08/08 16:56:02;;;;;;;3.53;1.10;;;;;;;;;;4962394;28;20085;-85
2022/08/08 16:58:56;;;;;;;4.75;1.20;;;;;;;;;;4964645;28;20039;-92
2022/08/08 17:01:29;;;;;;;2.50;1.30;;;;;;;;;;4960428;28;20130;-94
2022/08/08 17:04:05;;;;;;;3.92;1.25;;;;;;;;;;4959530;28;20528;-92
2022/08/08 17:06:59;;;;;;;3.42;1.30;;;;;;;;;;4959582;28;20054;-92
2022/08/08 17:09:27;;;;;;;5.20;1.25;;;;;;;;;;4994942;28;20062;-92
2022/08/08 17:12:37;;;;;;;6.40;1.20;;;;;;;;;;4985067;28;20053;-92
2022/08/08 17:15:55;;;;;;;4.40;1.25;;;;;;;;;;4996118;28;20042;-87
2022/08/08 17:18:23;;;;;;;4.30;1.38;;;;;;;;;;4974257;28;20187;-91